createdAt,value
2023-03-22T00:02:04.472Z,9.00
2023-03-22T00:04:31.328Z,10.40
2023-03-22T00:06:58.102Z,8.90
2023-03-22T00:09:24.830Z,9.80
2023-03-22T00:11:51.552Z,9.00
2023-03-22T00:14:18.724Z,10.30
2023-03-22T00:16:49.422Z,8.90
2023-03-22T00:19:17.450Z,10.20
2023-03-22T00:21:44.494Z,8.90
2023-03-22T00:24:11.338Z,9.00
2023-03-22T00:26:38.112Z,8.90
2023-03-22T00:29:05.326Z,10.00
2023-03-22T00:31:32.117Z,8.90
2023-03-22T00:33:58.875Z,8.90
2023-03-22T00:36:26.025Z,8.90
2023-03-22T00:38:52.737Z,8.90
2023-03-22T00:41:24.229Z,9.00
2023-03-22T00:43:51.340Z,9.00
2023-03-22T00:46:21.068Z,9.00
2023-03-22T00:48:49.010Z,9.00
2023-03-22T00:51:16.634Z,10.10
2023-03-22T00:53:44.199Z,9.00
2023-03-22T00:56:15.808Z,10.50
2023-03-22T00:58:43.685Z,10.50
2023-03-22T01:01:14.213Z,9.00
2023-03-22T01:03:43.261Z,9.00
2023-03-22T01:06:10.975Z,9.00
2023-03-22T01:08:38.763Z,9.00
2023-03-22T01:11:07.406Z,10.00
2023-03-22T01:13:37.467Z,9.00
2023-03-22T01:16:05.996Z,9.00
2023-03-22T01:18:32.901Z,9.00
2023-03-22T01:21:00.707Z,9.00
2023-03-22T01:23:27.476Z,9.20
2023-03-22T01:25:54.280Z,9.00
2023-03-22T01:28:20.979Z,9.00
2023-03-22T01:30:47.759Z,9.00
2023-03-22T01:33:14.490Z,9.00
2023-03-22T01:35:41.222Z,9.00
2023-03-22T01:38:07.975Z,9.00
2023-03-22T01:40:35.004Z,9.00
2023-03-22T01:43:01.853Z,9.00
2023-03-22T01:45:37.201Z,9.00
2023-03-22T01:48:14.230Z,9.00
2023-03-22T01:50:45.736Z,9.00
2023-03-22T01:53:14.323Z,9.00
2023-03-22T01:55:42.441Z,9.00
2023-03-22T01:58:09.299Z,9.00
2023-03-22T02:00:37.023Z,8.90
2023-03-22T02:03:05.493Z,8.90
2023-03-22T02:05:34.711Z,8.90
2023-03-22T02:08:02.647Z,8.90
2023-03-22T02:10:29.451Z,8.90
2023-03-22T02:13:14.404Z,8.90
2023-03-22T02:15:56.094Z,8.80
2023-03-22T02:18:28.981Z,8.80
2023-03-22T02:21:13.949Z,8.90
2023-03-22T02:24:18.119Z,8.80
2023-03-22T02:26:54.447Z,8.80
2023-03-22T02:29:39.787Z,8.80
2023-03-22T02:32:26.883Z,8.80
2023-03-22T02:35:31.144Z,8.80
2023-03-22T02:38:11.494Z,8.80
2023-03-22T02:40:50.213Z,8.80
2023-03-22T02:43:56.828Z,8.80
2023-03-22T02:46:41.382Z,8.70
2023-03-22T02:49:29.661Z,8.70
2023-03-22T02:52:11.320Z,8.70
2023-03-22T02:54:50.677Z,8.70
2023-03-22T02:57:26.315Z,8.70
2023-03-22T02:59:54.387Z,8.60
2023-03-22T03:02:23.526Z,8.60
2023-03-22T03:04:52.157Z,8.60
2023-03-22T03:07:24.533Z,8.50
2023-03-22T03:09:51.842Z,8.50
2023-03-22T03:12:24.721Z,9.50
2023-03-22T03:14:52.097Z,8.50
2023-03-22T03:17:52.620Z,8.50
2023-03-22T03:20:44.526Z,8.50
2023-03-22T03:23:22.839Z,8.50
2023-03-22T03:26:19.708Z,8.50
2023-03-22T03:28:56.769Z,8.50
2023-03-22T03:31:35.457Z,8.50
2023-03-22T03:34:10.690Z,8.50
2023-03-22T03:36:40.502Z,8.50
2023-03-22T03:39:12.513Z,8.50
2023-03-22T03:41:41.419Z,8.50
2023-03-22T03:44:09.022Z,10.30
2023-03-22T03:46:35.973Z,8.50
2023-03-22T03:49:05.063Z,8.60
2023-03-22T03:51:34.056Z,8.60
2023-03-22T03:54:00.693Z,8.60
2023-03-22T03:56:27.405Z,8.60
2023-03-22T03:58:54.092Z,8.60
2023-03-22T04:01:21.054Z,8.60
2023-03-22T04:03:50.742Z,8.60
2023-03-22T04:06:17.579Z,8.60
2023-03-22T04:08:45.529Z,8.60
2023-03-22T04:11:12.293Z,8.70
2023-03-22T04:13:38.942Z,8.70
2023-03-22T04:16:06.653Z,8.70
2023-03-22T04:18:33.400Z,8.70
2023-03-22T04:21:00.457Z,8.70
2023-03-22T04:23:27.131Z,9.70
2023-03-22T04:25:54.621Z,8.70
2023-03-22T04:28:21.330Z,8.70
2023-03-22T04:30:51.961Z,8.70
2023-03-22T04:33:23.066Z,8.70
2023-03-22T04:35:50.503Z,8.70
2023-03-22T04:38:18.275Z,10.00
2023-03-22T04:40:46.833Z,8.70
2023-03-22T04:43:14.152Z,8.70
2023-03-22T04:45:42.117Z,8.70
2023-03-22T04:48:10.637Z,9.40
2023-03-22T04:50:39.118Z,8.70
2023-03-22T04:53:06.759Z,9.00
2023-03-22T04:55:34.259Z,8.80
2023-03-22T04:58:01.197Z,10.00
2023-03-22T05:00:30.203Z,9.90
2023-03-22T05:02:58.017Z,9.50
2023-03-22T05:05:24.973Z,8.80
2023-03-22T05:07:51.660Z,8.80
2023-03-22T05:10:18.466Z,8.90
2023-03-22T05:12:45.465Z,8.80
2023-03-22T05:15:12.170Z,10.20
2023-03-22T05:17:38.912Z,8.80
2023-03-22T05:20:10.302Z,10.00
2023-03-22T05:22:40.591Z,8.90
2023-03-22T05:25:10.630Z,10.40
2023-03-22T05:27:39.100Z,8.90
2023-03-22T05:30:07.483Z,8.80
2023-03-22T05:32:37.491Z,8.80
2023-03-22T05:35:05.031Z,8.80
2023-03-22T05:37:32.263Z,8.80
2023-03-22T05:39:58.984Z,8.80
2023-03-22T05:42:26.037Z,8.80
2023-03-22T05:44:52.771Z,8.80
2023-03-22T05:47:19.435Z,8.80
2023-03-22T05:49:47.000Z,9.00
2023-03-22T05:52:13.773Z,8.80
2023-03-22T05:54:40.625Z,8.90
2023-03-22T05:57:07.345Z,8.80
2023-03-22T05:59:34.019Z,9.30
2023-03-22T06:02:00.757Z,8.90
2023-03-22T06:04:27.469Z,8.90
2023-03-22T06:06:54.129Z,8.90
2023-03-22T06:09:20.845Z,8.90
2023-03-22T06:11:47.557Z,10.10
2023-03-22T06:14:14.416Z,10.80
2023-03-22T06:16:41.182Z,9.80
2023-03-22T06:19:07.940Z,9.50
2023-03-22T06:21:34.631Z,9.00
2023-03-22T06:24:01.359Z,9.00
2023-03-22T06:26:28.050Z,9.00
2023-03-22T06:28:54.746Z,9.00
2023-03-22T06:31:21.541Z,9.00
2023-03-22T06:33:48.310Z,9.90
2023-03-22T06:36:15.005Z,9.00
2023-03-22T06:38:41.854Z,9.10
2023-03-22T06:41:08.653Z,9.10
2023-03-22T06:43:35.389Z,9.10
2023-03-22T06:46:02.215Z,7.60
2023-03-22T06:48:29.365Z,9.10
2023-03-22T06:50:56.502Z,9.10
2023-03-22T06:53:23.221Z,9.10
2023-03-22T06:55:49.929Z,9.10
2023-03-22T06:58:16.574Z,10.00
2023-03-22T07:00:43.243Z,9.20
2023-03-22T07:03:10.088Z,9.30
2023-03-22T07:05:36.954Z,9.30
2023-03-22T07:08:03.669Z,9.30
2023-03-22T07:10:30.698Z,9.30
2023-03-22T07:12:57.531Z,9.30
2023-03-22T07:15:24.856Z,9.30
2023-03-22T07:17:52.303Z,9.30
2023-03-22T07:20:20.399Z,9.40
2023-03-22T07:22:47.203Z,10.50
2023-03-22T07:25:13.865Z,9.50
2023-03-22T07:27:40.680Z,9.50
2023-03-22T07:30:09.737Z,11.00
2023-03-22T07:32:36.874Z,9.60
2023-03-22T07:35:03.573Z,9.60
2023-03-22T07:37:30.358Z,9.70
2023-03-22T07:39:57.090Z,9.70
2023-03-22T07:42:23.882Z,9.70
2023-03-22T07:44:50.640Z,10.90
2023-03-22T07:47:22.171Z,9.80
2023-03-22T07:49:53.912Z,9.80
2023-03-22T07:52:20.824Z,9.80
2023-03-22T07:54:47.504Z,9.80
2023-03-22T07:57:14.893Z,10.70
2023-03-22T07:59:41.861Z,9.80
2023-03-22T08:02:11.187Z,9.90
2023-03-22T08:04:38.177Z,9.90
2023-03-22T08:07:05.881Z,9.90
2023-03-22T08:09:33.307Z,9.90
2023-03-22T08:12:00.059Z,9.80
2023-03-22T08:14:35.948Z,10.80
2023-03-22T08:17:05.649Z,9.70
2023-03-22T08:19:33.728Z,9.70
2023-03-22T08:22:00.739Z,9.70
2023-03-22T08:24:27.489Z,9.60
2023-03-22T08:26:54.463Z,9.60
2023-03-22T08:29:23.183Z,9.60
2023-03-22T08:31:50.708Z,10.70
2023-03-22T08:34:17.919Z,9.50
2023-03-22T08:36:44.610Z,9.60
2023-03-22T08:39:11.324Z,9.60
2023-03-22T08:41:39.191Z,9.60
2023-03-22T08:44:06.371Z,9.60
2023-03-22T08:46:33.217Z,9.60
2023-03-22T08:49:01.053Z,9.60
2023-03-22T08:51:27.744Z,9.60
2023-03-22T08:53:54.532Z,9.60
2023-03-22T08:56:22.655Z,9.60
2023-03-22T08:58:49.550Z,9.60
2023-03-22T09:01:17.886Z,9.60
2023-03-22T09:03:44.656Z,9.60
2023-03-22T09:06:11.529Z,10.90
2023-03-22T09:08:38.328Z,9.60
2023-03-22T09:11:08.110Z,9.70
2023-03-22T09:13:34.831Z,9.70
2023-03-22T09:16:01.735Z,9.70
2023-03-22T09:18:28.499Z,9.80
2023-03-22T09:20:55.368Z,9.90
2023-03-22T09:23:22.156Z,9.90
2023-03-22T09:25:49.216Z,9.90
2023-03-22T09:28:16.689Z,9.90
2023-03-22T09:30:44.862Z,9.90
2023-03-22T09:33:11.871Z,9.90
2023-03-22T09:35:43.407Z,9.80
2023-03-22T09:38:12.163Z,9.70
2023-03-22T09:40:50.185Z,9.70
2023-03-22T09:43:18.410Z,9.70
2023-03-22T09:45:49.800Z,9.60
2023-03-22T09:48:29.406Z,9.60
2023-03-22T09:50:56.601Z,9.60
2023-03-22T09:53:26.984Z,9.60
2023-03-22T09:56:20.628Z,9.60
2023-03-22T09:58:55.905Z,9.60
2023-03-22T10:01:50.959Z,9.70
2023-03-22T10:04:43.991Z,9.50
2023-03-22T10:07:22.505Z,9.50
2023-03-22T10:10:03.853Z,9.60
2023-03-22T10:12:37.083Z,9.50
2023-03-22T10:15:17.348Z,9.60
2023-03-22T10:17:46.939Z,9.60
2023-03-22T10:20:23.138Z,9.70
2023-03-22T10:22:53.502Z,9.80
2023-03-22T10:25:27.720Z,10.80
2023-03-22T10:27:54.672Z,9.80
2023-03-22T10:30:24.526Z,9.70
2023-03-22T10:33:01.088Z,9.80
2023-03-22T10:35:28.623Z,9.80
2023-03-22T10:37:58.071Z,9.70
2023-03-22T10:40:31.654Z,9.70
2023-03-22T10:43:03.596Z,9.70
2023-03-22T10:45:33.630Z,9.70
2023-03-22T10:48:19.577Z,9.80
2023-03-22T10:50:46.832Z,9.80
2023-03-22T10:53:28.837Z,9.80
2023-03-22T10:55:56.720Z,9.80
2023-03-22T10:58:30.282Z,9.90
2023-03-22T11:00:59.927Z,9.90
2023-03-22T11:03:35.095Z,10.00
2023-03-22T11:06:08.246Z,10.00
2023-03-22T11:08:54.544Z,10.10
2023-03-22T11:11:26.133Z,10.20
2023-03-22T11:14:05.034Z,10.30
2023-03-22T11:16:40.453Z,12.20
2023-03-22T11:19:17.900Z,11.10
2023-03-22T11:21:45.758Z,10.20
2023-03-22T11:24:15.373Z,10.20
2023-03-22T11:26:42.073Z,10.20
2023-03-22T11:29:16.863Z,10.20
2023-03-22T11:31:55.960Z,10.30
2023-03-22T11:34:26.550Z,10.30
2023-03-22T11:36:59.053Z,10.30
2023-03-22T11:39:29.938Z,10.40
2023-03-22T11:42:00.147Z,10.40
2023-03-22T11:44:32.095Z,10.40
2023-03-22T11:47:01.934Z,10.40
2023-03-22T11:49:51.300Z,10.40
2023-03-22T11:52:24.532Z,10.40
2023-03-22T11:54:52.659Z,10.40
2023-03-22T11:57:28.766Z,10.30
2023-03-22T12:00:08.228Z,10.20
2023-03-22T12:02:41.806Z,10.20
2023-03-22T12:05:21.265Z,10.20
2023-03-22T12:07:53.250Z,10.20
2023-03-22T12:10:26.618Z,10.80
2023-03-22T12:13:01.186Z,10.20
2023-03-22T12:15:40.618Z,10.10
2023-03-22T12:18:24.563Z,10.10
2023-03-22T12:20:57.088Z,10.00
2023-03-22T12:23:30.236Z,10.00
2023-03-22T12:26:01.584Z,9.90
2023-03-22T12:28:58.934Z,11.20
2023-03-22T12:31:33.631Z,9.90
2023-03-22T12:34:06.234Z,10.00
2023-03-22T12:36:43.023Z,10.40
2023-03-22T12:39:17.901Z,10.20
2023-03-22T12:41:49.883Z,10.00
2023-03-22T12:44:34.654Z,10.00
2023-03-22T12:47:13.461Z,10.00
2023-03-22T12:50:02.725Z,10.00
2023-03-22T12:52:51.183Z,10.00
2023-03-22T12:55:23.008Z,10.00
2023-03-22T12:57:52.602Z,11.60
2023-03-22T13:00:21.035Z,10.00
2023-03-22T13:02:59.358Z,10.00
2023-03-22T13:05:34.105Z,10.00
2023-03-22T13:08:04.187Z,10.10
2023-03-22T13:10:31.165Z,10.30
2023-03-22T13:13:22.288Z,10.10
2023-03-22T13:16:11.116Z,10.20
2023-03-22T13:18:38.226Z,10.10
2023-03-22T13:21:16.506Z,10.10
2023-03-22T13:24:20.242Z,10.10
2023-03-22T13:26:53.156Z,10.00
2023-03-22T13:29:36.645Z,10.00
2023-03-22T13:32:29.939Z,10.00
2023-03-22T13:34:57.204Z,10.00
2023-03-22T13:37:35.088Z,10.00
2023-03-22T13:40:13.300Z,10.00
2023-03-22T13:42:41.188Z,10.00
2023-03-22T13:45:27.626Z,10.00
2023-03-22T13:48:27.471Z,10.00
2023-03-22T13:50:54.745Z,10.00
2023-03-22T13:53:30.340Z,9.90
2023-03-22T13:55:59.200Z,9.90
2023-03-22T13:58:48.038Z,9.90
2023-03-22T14:01:30.633Z,9.90
2023-03-22T14:04:01.237Z,9.90
2023-03-22T14:06:33.817Z,9.80
2023-03-22T14:09:13.409Z,9.80
2023-03-22T14:12:02.083Z,9.80
2023-03-22T14:14:40.023Z,9.80
2023-03-22T14:17:19.956Z,9.70
2023-03-22T14:19:47.668Z,9.70
